Time;durP1;ratioP1;P1;durP2;ratioP2;P2;SDS_P1;SDS_P2;PMS_P1;PMS_P2;Temp;Humidity;BMP_temperature;BMP_pressure;BME280_temperature;BME280_humidity;BME280_pressure;Samples;Min_cycle;Max_cycle;Signal;HPM_P1;HPM_P2
2022/09/21 00:01:33;;;;;;;1.67;0.63;;;;;;;26.41;36.17;102292.47;5094957;28;20024;-47
2022/09/21 00:04:03;;;;;;;1.13;0.70;;;;;;;26.39;36.12;102284.56;5093902;28;20421;-50
2022/09/21 00:06:34;;;;;;;1.75;0.70;;;;;;;26.45;35.96;102294.31;5076806;28;20020;-49
2022/09/21 00:09:03;;;;;;;1.98;0.80;;;;;;;26.39;35.68;102277.53;5094760;28;20097;-48
2022/09/21 00:11:33;;;;;;;0.65;0.57;;;;;;;26.44;35.74;102290.81;5094747;28;20072;-52
2022/09/21 00:14:06;;;;;;;2.45;1.00;;;;;;;26.45;35.72;102294.31;5076525;28;20020;-54
2022/09/21 00:16:35;;;;;;;1.15;0.77;;;;;;;26.44;35.83;102303.06;5094612;28;20109;-51
2022/09/21 00:19:05;;;;;;;1.50;0.85;;;;;;;26.46;35.79;102296.09;5094856;28;20031;-50
2022/09/21 00:21:34;;;;;;;0.80;0.70;;;;;;;26.46;35.85;102299.66;5095029;28;20084;-49
2022/09/21 00:24:03;;;;;;;1.00;0.80;;;;;;;26.40;35.99;102299.50;5094540;28;20031;-48
2022/09/21 00:26:31;;;;;;;1.92;0.80;;;;;;;26.25;35.86;102271.06;5094524;28;20459;-49
2022/09/21 00:29:01;;;;;;;0.80;0.60;;;;;;;26.41;35.97;102298.63;5076457;28;20438;-47
2022/09/21 00:31:30;;;;;;;1.27;0.70;;;;;;;26.41;35.81;102295.09;5094214;28;20059;-49
2022/09/21 00:33:59;;;;;;;2.05;0.80;;;;;;;26.39;35.84;102301.22;5094210;28;20086;-49
2022/09/21 00:36:28;;;;;;;1.33;0.70;;;;;;;26.42;35.76;102300.41;5094050;28;20035;-47
2022/09/21 00:39:00;;;;;;;1.48;0.70;;;;;;;26.41;35.89;102295.09;5093998;28;20050;-47
2022/09/21 00:41:31;;;;;;;1.05;0.57;;;;;;;26.43;35.86;102294.31;5094742;28;20024;-47
2022/09/21 00:44:19;;;;;;;1.70;0.70;;;;;;;26.39;35.97;102284.56;5094273;28;20054;-48
2022/09/21 00:46:49;;;;;;;0.60;0.60;;;;;;;26.42;35.78;102291.63;5093896;28;20032;-47
2022/09/21 00:49:18;;;;;;;1.45;0.80;;;;;;;26.35;36.03;102287.94;5094058;28;20061;-52
2022/09/21 00:51:48;;;;;;;0.77;0.68;;;;;;;26.40;35.90;102288.97;5075952;28;20028;-50
2022/09/21 00:54:22;;;;;;;1.52;1.00;;;;;;;26.41;35.75;102296.00;5094396;28;20093;-51
2022/09/21 00:56:50;;;;;;;1.47;0.80;;;;;;;26.37;35.93;102288.88;5093534;28;20123;-48
2022/09/21 00:59:19;;;;;;;0.75;0.65;;;;;;;26.42;35.89;102286.34;5093908;28;20288;-51
2022/09/21 01:01:48;;;;;;;1.17;0.60;;;;;;;26.39;35.80;102293.31;5093850;28;20067;-48
2022/09/21 01:04:17;;;;;;;1.00;0.70;;;;;;;26.29;35.87;102291.34;5059790;28;20035;-50
2022/09/21 01:06:46;;;;;;;1.13;1.00;;;;;;;26.30;35.74;102292.25;5093566;28;20059;-50
2022/09/21 01:09:15;;;;;;;1.85;0.80;;;;;;;26.31;35.99;102297.53;5093705;28;20464;-55
2022/09/21 01:12:08;;;;;;;1.27;0.70;;;;;;;26.32;35.96;102288.78;5093602;28;20036;-51
2022/09/21 01:14:56;;;;;;;0.65;0.55;;;;;;;26.36;35.99;102287.09;5083340;28;20036;-50
2022/09/21 01:17:36;;;;;;;2.05;0.90;;;;;;;26.35;35.91;102285.31;5086232;28;20483;-47
2022/09/21 01:20:09;;;;;;;1.63;1.00;;;;;;;26.37;35.90;102288.88;5076052;28;20407;-48
2022/09/21 01:23:00;;;;;;;2.20;0.55;;;;;;;26.28;35.74;102279.03;5075790;28;20487;-51
2022/09/21 01:25:51;;;;;;;1.60;0.88;;;;;;;26.35;35.68;102285.31;5084652;28;20407;-49
2022/09/21 01:28:39;;;;;;;1.20;0.70;;;;;;;26.37;35.69;102288.88;5088896;28;20045;-48
2022/09/21 01:31:10;;;;;;;0.95;0.70;;;;;;;26.36;35.81;102284.47;5068552;28;20032;-52
2022/09/21 01:33:48;;;;;;;1.02;0.93;;;;;;;26.38;35.53;102286.31;5075676;28;20016;-51
2022/09/21 01:36:21;;;;;;;0.75;0.75;;;;;;;26.37;35.79;102288.88;5093486;28;20445;-49
2022/09/21 01:38:52;;;;;;;0.52;0.43;;;;;;;26.36;35.81;102281.84;5075431;28;20032;-51
2022/09/21 01:41:24;;;;;;;0.80;0.70;;;;;;;26.34;35.61;102280.91;5093199;28;20027;-52
2022/09/21 01:43:56;;;;;;;1.67;0.80;;;;;;;26.36;35.70;102277.50;5075404;28;20024;-49
2022/09/21 01:46:30;;;;;;;1.08;0.85;;;;;;;26.40;35.70;102278.44;5093164;28;20028;-52
2022/09/21 01:49:05;;;;;;;1.92;0.88;;;;;;;26.29;35.62;102265.03;5075646;28;20036;-51
2022/09/21 01:51:34;;;;;;;0.80;0.70;;;;;;;26.35;35.66;102266.91;5092932;28;20451;-51
2022/09/21 01:54:09;;;;;;;1.40;0.77;;;;;;;26.41;35.60;102274.97;5075351;28;20031;-50
2022/09/21 01:56:45;;;;;;;3.55;0.82;;;;;;;26.41;35.69;102277.59;5092794;28;20074;-49
2022/09/21 01:59:19;;;;;;;1.77;0.60;;;;;;;26.33;35.52;102256.38;5075491;28;20032;-50
2022/09/21 02:01:52;;;;;;;0.75;0.57;;;;;;;26.41;35.63;102269.69;5093134;28;20024;-48
2022/09/21 02:04:21;;;;;;;1.10;0.80;;;;;;;26.48;35.38;102266.34;5074901;28;20536;-48
2022/09/21 02:06:50;;;;;;;0.93;0.73;;;;;;;26.46;35.47;102268.06;5092518;28;20047;-48
2022/09/21 02:09:19;;;;;;;1.30;0.70;;;;;;;26.45;35.63;102263.66;5075141;28;20115;-47
2022/09/21 02:11:47;;;;;;;1.70;0.93;;;;;;;26.39;35.35;102259.13;5092709;28;20039;-48
2022/09/21 02:14:22;;;;;;;1.08;0.80;;;;;;;26.39;35.48;102256.47;5093174;28;20020;-49
2022/09/21 02:17:09;;;;;;;;;;;;;;;26.41;35.45;102259.16;5075187;28;20024;-50
2022/09/21 02:19:49;;;;;;;4.00;0.68;;;;;;;26.32;35.56;102251.03;5084321;28;19994;-47
2022/09/21 02:22:31;;;;;;;0.75;0.60;;;;;;;26.34;35.78;102257.22;5074843;28;20024;-52
2022/09/21 02:25:08;;;;;;;1.75;0.70;;;;;;;26.35;35.70;102256.38;5075013;28;20024;-49
2022/09/21 02:27:57;;;;;;;1.13;0.80;;;;;;;26.40;35.45;102252.13;5096612;28;20024;-50
2022/09/21 02:30:26;;;;;;;1.08;0.98;;;;;;;26.36;35.87;102255.53;5096609;28;20076;-47
2022/09/21 02:33:06;;;;;;;0.70;0.70;;;;;;;26.32;35.61;102256.31;5096497;28;20032;-50
2022/09/21 02:35:42;;;;;;;0.70;0.70;;;;;;;26.46;35.37;102256.63;5078211;28;20035;-48
2022/09/21 02:38:35;;;;;;;1.52;0.75;;;;;;;26.37;35.48;102247.69;5078496;28;20036;-47
2022/09/21 02:41:19;;;;;;;1.15;0.80;;;;;;;26.34;35.39;102241.44;5088705;28;20487;-47
2022/09/21 02:44:04;;;;;;;0.80;0.60;;;;;;;26.34;35.62;102249.34;5096518;28;20067;-48
2022/09/21 02:46:56;;;;;;;1.83;0.85;;;;;;;26.36;35.68;102247.63;5079050;28;20023;-49
2022/09/21 02:49:38;;;;;;;0.68;0.68;;;;;;;26.34;35.78;102246.72;5055829;28;20080;-51
2022/09/21 02:52:11;;;;;;;0.82;0.50;;;;;;;26.35;35.60;102237.97;5078426;28;20041;-52
2022/09/21 02:54:41;;;;;;;0.65;0.60;;;;;;;26.30;35.42;102239.63;5078409;28;20059;-52
2022/09/21 02:57:11;;;;;;;0.70;0.70;;;;;;;26.35;35.58;102243.22;5096102;28;20487;-52
2022/09/21 02:59:41;;;;;;;0.60;0.50;;;;;;;26.30;35.68;102235.25;5078440;28;20032;-50
2022/09/21 03:02:11;;;;;;;1.10;0.60;;;;;;;26.32;35.58;102237.88;5096084;28;20133;-52
2022/09/21 03:04:41;;;;;;;1.00;0.63;;;;;;;26.38;35.34;102233.69;5096132;28;20031;-54
2022/09/21 03:07:09;;;;;;;1.38;0.90;;;;;;;26.40;35.30;102228.44;5078320;28;20475;-51
2022/09/21 03:09:38;;;;;;;1.00;0.70;;;;;;;26.34;35.47;102221.31;5096195;28;20028;-50
2022/09/21 03:12:06;;;;;;;2.25;0.55;;;;;;;26.33;35.38;102224.78;5096427;28;20039;-51
2022/09/21 03:14:35;;;;;;;2.65;0.50;;;;;;;26.30;35.74;102214.19;5095831;28;20028;-51
2022/09/21 03:17:04;;;;;;;1.45;0.90;;;;;;;26.35;35.25;102211.66;5077587;28;20038;-51
2022/09/21 03:19:32;;;;;;;1.02;0.88;;;;;;;26.38;35.28;102212.63;5095559;28;20103;-51
2022/09/21 03:22:01;;;;;;;2.00;0.82;;;;;;;26.30;35.54;102203.66;5095798;28;20036;-50
2022/09/21 03:24:50;;;;;;;1.40;0.70;;;;;;;26.30;35.72;102201.03;5095571;28;20490;-50
2022/09/21 03:27:19;;;;;;;1.20;0.65;;;;;;;26.29;35.75;102208.91;5094437;28;20051;-53
2022/09/21 03:29:48;;;;;;;0.57;0.57;;;;;;;26.27;35.42;102206.22;5095587;28;20376;-52
2022/09/21 03:32:17;;;;;;;0.70;0.60;;;;;;;26.28;35.52;102189.59;5077867;28;20020;-52
2022/09/21 03:34:45;;;;;;;0.98;0.60;;;;;;;26.26;35.55;102195.69;5095130;28;20115;-51
2022/09/21 03:37:14;;;;;;;1.88;0.60;;;;;;;26.21;35.62;102183.31;5095195;28;20039;-53
2022/09/21 03:39:42;;;;;;;0.93;0.80;;;;;;;26.28;35.52;102183.47;5095319;28;20059;-49
2022/09/21 03:42:12;;;;;;;1.05;0.70;;;;;;;26.30;35.59;102187.00;5095916;28;20028;-50
2022/09/21 03:44:40;;;;;;;0.40;0.40;;;;;;;26.28;35.64;102189.59;5095117;28;20028;-50
2022/09/21 03:47:09;;;;;;;1.92;0.73;;;;;;;26.32;35.48;102180.00;5095165;28;20446;-51
2022/09/21 03:49:37;;;;;;;0.82;0.70;;;;;;;26.27;35.41;102189.56;5095491;28;20020;-48
2022/09/21 03:52:06;;;;;;;1.80;0.80;;;;;;;26.27;35.46;102189.56;5095210;28;20050;-50
2022/09/21 03:54:34;;;;;;;0.90;0.70;;;;;;;26.28;35.62;102186.97;5095172;28;20020;-50
2022/09/21 03:57:03;;;;;;;1.00;0.70;;;;;;;26.27;35.57;102186.94;5095166;28;20032;-47
2022/09/21 03:59:31;;;;;;;0.70;0.70;;;;;;;26.21;35.40;102191.19;5094957;28;20086;-48
2022/09/21 04:02:00;;;;;;;1.17;0.68;;;;;;;26.20;35.49;102186.78;5095072;28;20032;-50
2022/09/21 04:04:28;;;;;;;0.43;0.43;;;;;;;26.19;35.35;102181.50;5094999;28;20031;-49
2022/09/21 04:06:57;;;;;;;1.55;0.70;;;;;;;26.24;35.59;102187.75;5094864;28;20047;-49
2022/09/21 04:09:25;;;;;;;0.80;0.73;;;;;;;26.21;35.38;102185.06;5077104;28;20028;-47
2022/09/21 04:11:54;;;;;;;1.50;0.80;;;;;;;26.28;35.46;102196.59;5077291;28;20024;-48
2022/09/21 04:14:22;;;;;;;0.68;0.65;;;;;;;26.30;35.41;102192.28;5094292;28;20047;-50
2022/09/21 04:16:51;;;;;;;1.20;0.63;;;;;;;26.30;35.31;102193.16;5094277;28;20441;-48
2022/09/21 04:19:21;;;;;;;0.75;0.60;;;;;;;26.16;35.61;102173.53;5094666;28;20516;-50
2022/09/21 04:21:53;;;;;;;0.80;0.70;;;;;;;26.26;35.28;102198.31;5094443;28;20028;-49
2022/09/21 04:24:22;;;;;;;0.75;0.57;;;;;;;26.29;35.58;102193.13;5094383;28;20082;-48
2022/09/21 04:26:51;;;;;;;0.65;0.60;;;;;;;26.24;35.32;102183.38;5094251;28;20483;-48
2022/09/21 04:29:19;;;;;;;1.10;0.75;;;;;;;26.22;35.51;102185.09;5094436;28;20036;-47
2022/09/21 04:31:48;;;;;;;1.25;0.40;;;;;;;26.27;35.27;102193.06;5094494;28;20031;-47
2022/09/21 04:34:16;;;;;;;1.10;0.73;;;;;;;26.27;35.34;102185.19;5094433;28;20099;-47
2022/09/21 04:36:46;;;;;;;0.80;0.70;;;;;;;26.28;35.33;102183.47;5094181;28;20035;-47
2022/09/21 04:39:14;;;;;;;0.55;0.55;;;;;;;26.14;35.62;102177.88;5094506;28;20417;-47
2022/09/21 04:41:43;;;;;;;1.48;1.00;;;;;;;26.14;35.71;102175.25;5094390;28;20114;-47
2022/09/21 04:44:11;;;;;;;0.70;0.70;;;;;;;26.15;35.74;102187.53;5094290;28;20036;-47
2022/09/21 04:46:40;;;;;;;0.70;0.60;;;;;;;26.10;35.49;102179.53;5093817;28;20024;-47
2022/09/21 04:49:08;;;;;;;0.60;0.60;;;;;;;26.18;35.40;102190.25;5093910;28;20119;-48
2022/09/21 04:51:37;;;;;;;0.57;0.57;;;;;;;26.13;35.69;102182.25;5076041;28;20024;-53
2022/09/21 04:54:05;;;;;;;1.13;0.57;;;;;;;26.19;35.36;102192.91;5059478;28;20387;-51
2022/09/21 04:56:34;;;;;;;0.60;0.55;;;;;;;26.20;35.57;102189.41;5094015;28;20044;-51
2022/09/21 04:59:03;;;;;;;1.08;0.63;;;;;;;26.20;35.70;102183.28;5094134;28;20020;-52
2022/09/21 05:01:32;;;;;;;0.77;0.52;;;;;;;26.14;35.44;102184.03;5093688;28;20066;-54
2022/09/21 05:04:01;;;;;;;0.73;0.60;;;;;;;26.13;35.83;102174.38;5093590;28;20028;-51
2022/09/21 05:06:30;;;;;;;0.80;0.60;;;;;;;26.11;35.64;102173.44;5094057;28;20546;-51
2022/09/21 05:11:46;;;;;;;0.82;0.60;;;;;;;26.17;35.46;102173.56;5071333;28;20061;-51
2022/09/21 05:14:15;;;;;;;0.45;0.40;;;;;;;26.19;35.52;102177.13;5093941;28;20047;-52
2022/09/21 05:16:43;;;;;;;2.05;0.70;;;;;;;26.14;35.36;102175.25;5093186;28;20020;-52
2022/09/21 05:19:12;;;;;;;0.70;0.55;;;;;;;26.09;35.58;102186.50;5093782;28;20020;-52
2022/09/21 05:21:40;;;;;;;0.80;0.60;;;;;;;26.12;35.42;102183.09;5093474;28;20489;-50
2022/09/21 05:24:09;;;;;;;2.97;0.60;;;;;;;26.09;35.62;102170.72;5093278;28;20028;-51
2022/09/21 05:26:38;;;;;;;1.25;0.57;;;;;;;26.15;35.53;102171.75;5093293;28;20074;-50
2022/09/21 05:29:06;;;;;;;1.10;0.65;;;;;;;26.16;35.29;102179.66;5093214;28;20047;-51
2022/09/21 05:31:45;;;;;;;2.47;0.50;;;;;;;26.13;35.59;102184.88;5076043;28;20059;-50
2022/09/21 05:34:52;;;;;;;0.85;0.50;;;;;;;26.11;35.64;102181.34;5075273;28;20024;-49
2022/09/21 05:37:37;;;;;;;1.88;0.50;;;;;;;26.07;35.76;102187.34;5086287;28;20105;-51
2022/09/21 05:40:06;;;;;;;0.77;0.60;;;;;;;25.99;35.52;102179.25;5093156;28;20375;-51
2022/09/21 05:42:35;;;;;;;2.20;0.80;;;;;;;25.99;35.52;102173.09;5092963;28;20058;-49
2022/09/21 05:45:04;;;;;;;0.90;0.60;;;;;;;26.07;35.40;102185.56;5092984;28;20039;-51
2022/09/21 05:48:10;;;;;;;4.80;0.73;;;;;;;25.99;35.49;102178.34;5092804;28;20024;-49
2022/09/21 05:50:42;;;;;;;3.17;0.60;;;;;;;26.03;35.00;102190.72;5090448;28;20047;-50
2022/09/21 05:53:29;;;;;;;1.77;0.70;;;;;;;25.93;35.45;102184.34;5093123;28;20391;-49
2022/09/21 05:55:59;;;;;;;6.15;0.80;;;;;;;25.87;35.45;102182.47;5092965;28;20463;-51
2022/09/21 05:59:05;;;;;;;5.60;0.98;;;;;;;25.93;35.53;102179.09;5075479;28;20028;-51
2022/09/21 06:01:38;;;;;;;2.75;1.05;;;;;;;25.92;35.03;102172.97;5088192;28;20072;-49
2022/09/21 06:04:12;;;;;;;6.13;0.88;;;;;;;25.99;35.06;102178.34;5096887;28;20085;-52
2022/09/21 06:06:40;;;;;;;2.28;0.63;;;;;;;25.96;34.94;102166.03;5096939;28;20446;-51
2022/09/21 06:09:08;;;;;;;3.15;0.82;;;;;;;26.03;34.75;102178.50;5096781;28;20020;-53
2022/09/21 06:11:37;;;;;;;1.17;0.80;;;;;;;26.01;34.99;102176.66;5096756;28;20114;-51
2022/09/21 06:14:05;;;;;;;2.10;0.73;;;;;;;25.98;34.69;102174.84;5097763;28;20024;-50
2022/09/21 06:16:38;;;;;;;2.92;1.02;;;;;;;25.93;35.29;102176.47;5078830;28;20028;-51
2022/09/21 06:19:05;;;;;;;3.22;0.88;;;;;;;25.87;35.08;102177.22;5079011;28;20032;-49
2022/09/21 06:21:34;;;;;;;4.03;0.90;;;;;;;25.90;35.31;102179.94;5097198;28;20055;-50
2022/09/21 06:24:02;;;;;;;1.25;0.80;;;;;;;25.96;35.02;102188.81;5096756;28;20032;-51
2022/09/21 06:26:31;;;;;;;1.30;0.90;;;;;;;26.01;35.13;102187.19;5096602;28;20111;-50
2022/09/21 06:28:59;;;;;;;2.20;0.60;;;;;;;25.93;35.14;102179.09;5089784;28;20059;-49
2022/09/21 06:31:28;;;;;;;5.45;1.10;;;;;;;25.86;35.46;102183.31;5076522;28;20029;-46
2022/09/21 06:33:57;;;;;;;5.03;0.75;;;;;;;25.87;35.57;102181.59;5076751;28;20482;-49
2022/09/21 06:36:25;;;;;;;5.53;0.95;;;;;;;25.93;35.37;102187.00;5058455;28;20036;-47
2022/09/21 06:38:54;;;;;;;2.15;0.93;;;;;;;25.85;35.43;102192.06;5076326;28;20024;-51
2022/09/21 06:41:22;;;;;;;4.85;1.23;;;;;;;25.95;35.12;102185.28;5058664;28;20496;-48
2022/09/21 06:43:55;;;;;;;3.38;0.80;;;;;;;25.94;35.24;102184.41;5076082;28;20488;-48
2022/09/21 06:46:24;;;;;;;2.03;1.00;;;;;;;25.97;35.20;102190.59;5058911;28;20052;-46
2022/09/21 06:48:51;;;;;;;6.05;0.77;;;;;;;25.96;35.44;102184.44;5076296;28;20036;-47
2022/09/21 06:51:20;;;;;;;2.33;0.65;;;;;;;26.00;35.42;102190.66;5076177;28;20082;-46
2022/09/21 06:53:49;;;;;;;1.67;0.93;;;;;;;26.02;35.16;102188.94;5075916;28;20024;-51
2022/09/21 06:56:18;;;;;;;4.15;1.08;;;;;;;26.06;35.35;102193.44;5076081;28;20027;-50
2022/09/21 06:58:46;;;;;;;4.30;0.90;;;;;;;26.01;35.37;102185.44;5076042;28;20054;-49
2022/09/21 07:01:16;;;;;;;5.25;1.00;;;;;;;25.98;35.46;102198.53;5076054;28;20090;-49
2022/09/21 07:03:45;;;;;;;4.07;1.10;;;;;;;26.00;35.40;102196.81;5058375;28;20020;-48
2022/09/21 07:06:14;;;;;;;3.53;0.90;;;;;;;26.00;35.41;102188.94;5075718;28;20106;-49
2022/09/21 07:08:43;;;;;;;5.45;1.05;;;;;;;26.06;35.36;102185.56;5075915;28;20046;-47
2022/09/21 07:11:12;;;;;;;1.95;0.80;;;;;;;26.05;35.21;102192.56;5075324;28;20387;-48
2022/09/21 07:13:41;;;;;;;3.25;1.00;;;;;;;26.10;35.39;102190.03;5075597;28;20119;-49
2022/09/21 07:16:11;;;;;;;6.65;1.00;;;;;;;26.13;35.18;102191.88;5075475;28;20029;-49
2022/09/21 07:18:41;;;;;;;1.85;0.60;;;;;;;26.15;35.16;102192.81;5075447;28;20082;-50
2022/09/21 07:21:10;;;;;;;2.50;0.75;;;;;;;26.21;35.02;102198.22;5075586;28;20483;-48
2022/09/21 07:23:39;;;;;;;2.50;0.95;;;;;;;26.20;35.13;102193.81;5075487;28;20071;-48
2022/09/21 07:26:09;;;;;;;1.98;1.08;;;;;;;26.19;35.18;102192.91;5074839;28;20024;-48
2022/09/21 07:28:38;;;;;;;5.97;1.00;;;;;;;26.21;35.38;102199.09;5075543;28;20052;-51
2022/09/21 07:31:08;;;;;;;2.00;0.90;;;;;;;26.20;35.30;102197.31;5075103;28;20021;-50
2022/09/21 07:33:36;;;;;;;3.53;0.90;;;;;;;26.20;35.30;102202.56;5075590;28;20028;-53
2022/09/21 07:36:09;;;;;;;2.15;0.73;;;;;;;26.25;35.21;102194.78;5075202;28;20030;-52
2022/09/21 07:38:38;;;;;;;3.00;0.80;;;;;;;26.28;35.12;102199.25;5075041;28;20032;-54
2022/09/21 07:41:08;;;;;;;2.40;0.90;;;;;;;26.15;35.25;102190.16;5075166;28;20520;-52
2022/09/21 07:43:40;;;;;;;3.55;1.08;;;;;;;26.24;35.46;102193.91;5057365;28;20419;-51
2022/09/21 07:46:11;;;;;;;2.30;1.02;;;;;;;26.18;35.27;102195.50;5075087;28;20029;-53
2022/09/21 07:48:39;;;;;;;3.75;1.15;;;;;;;26.13;35.01;102202.41;5075033;28;20028;-50
2022/09/21 07:51:10;;;;;;;1.13;0.70;;;;;;;26.06;34.99;102194.31;5074773;28;20021;-52
2022/09/21 07:53:41;;;;;;;4.85;1.00;;;;;;;26.01;34.37;102205.56;5075103;28;20020;-51
2022/09/21 07:56:12;;;;;;;2.13;1.08;;;;;;;25.98;34.54;102197.66;5075231;28;20033;-54
2022/09/21 07:59:22;;;;;;;2.47;1.23;;;;;;;26.07;34.32;102195.22;5057248;28;20033;-52
2022/09/21 08:01:29;;;;;;;6.35;1.55;;;;;;;26.11;33.94;102198.81;5065358;28;20037;-49
2022/09/21 08:03:58;;;;;;;2.10;1.20;;;;;;;26.09;33.94;102193.50;5074575;28;20024;-51
2022/09/21 08:06:29;;;;;;;2.70;1.30;;;;;;;26.15;33.67;102200.69;5074154;28;20472;-51
2022/09/21 08:08:57;;;;;;;5.82;1.27;;;;;;;26.09;33.51;102188.25;5074176;28;20043;-50
2022/09/21 08:11:27;;;;;;;3.15;1.13;;;;;;;26.04;33.95;102196.03;5074367;28;20028;-51
2022/09/21 08:13:58;;;;;;;1.65;0.88;;;;;;;26.06;33.82;102199.56;5074801;28;20535;-51
2022/09/21 08:16:29;;;;;;;3.60;1.13;;;;;;;26.08;33.87;102187.34;5074419;28;20025;-50
2022/09/21 08:18:58;;;;;;;2.47;0.95;;;;;;;26.09;33.89;102186.50;5074183;28;20029;-52
2022/09/21 08:21:27;;;;;;;2.03;1.48;;;;;;;26.06;34.10;102183.78;5056824;28;20448;-48
2022/09/21 08:23:55;;;;;;;2.38;0.93;;;;;;;26.06;34.05;102185.56;5073339;28;20418;-51
2022/09/21 08:26:24;;;;;;;2.13;1.00;;;;;;;26.05;34.20;102197.81;5074438;28;20032;-52
2022/09/21 08:28:56;;;;;;;2.58;1.25;;;;;;;26.11;34.19;102198.81;5074128;28;20086;-51
2022/09/21 08:31:25;;;;;;;3.88;1.42;;;;;;;26.05;33.89;102196.91;5073866;28;20029;-49
2022/09/21 08:33:57;;;;;;;3.17;1.10;;;;;;;26.07;34.11;102197.84;5074333;28;20024;-50
2022/09/21 08:36:25;;;;;;;3.78;1.85;;;;;;;26.08;34.09;102194.38;5074147;28;20035;-51
2022/09/21 08:38:55;;;;;;;3.03;1.45;;;;;;;26.03;34.37;102207.41;5056406;28;20085;-50
2022/09/21 08:41:35;;;;;;;5.00;1.60;;;;;;;26.00;34.16;102201.16;5073976;28;20056;-47
2022/09/21 08:44:15;;;;;;;4.07;1.67;;;;;;;26.08;33.94;102212.78;5056370;28;20081;-48
2022/09/21 08:46:44;;;;;;;1.83;1.20;;;;;;;26.12;33.89;102209.41;5074138;28;20024;-47
2022/09/21 08:49:20;;;;;;;3.20;1.83;;;;;;;26.10;33.82;102203.19;5071891;28;20437;-48
2022/09/21 08:51:56;;;;;;;2.58;1.65;;;;;;;26.03;34.07;102209.13;5077089;28;20077;-47
2022/09/21 08:54:49;;;;;;;2.90;1.50;;;;;;;25.98;33.75;102214.28;5083493;28;20021;-46
2022/09/21 08:57:18;;;;;;;2.15;1.30;;;;;;;25.96;34.30;102209.84;5068134;28;20071;-47
2022/09/21 08:59:47;;;;;;;3.83;1.55;;;;;;;26.01;34.11;102213.47;5083466;28;20028;-49
2022/09/21 09:02:37;;;;;;;2.50;1.08;;;;;;;26.00;34.06;102215.22;5081573;28;20439;-50
2022/09/21 09:05:25;;;;;;;5.90;1.70;;;;;;;26.06;33.95;102220.59;5072651;28;20029;-54
2022/09/21 09:08:15;;;;;;;2.95;1.23;;;;;;;26.06;34.04;102214.47;5072681;28;20043;-51
2022/09/21 09:10:49;;;;;;;3.20;1.25;;;;;;;26.13;33.85;102216.44;5078376;28;20407;-52
2022/09/21 09:13:22;;;;;;;4.05;1.52;;;;;;;26.13;33.94;102216.44;5062024;28;20104;-49
2022/09/21 09:16:00;;;;;;;2.80;1.35;;;;;;;26.12;33.94;102216.38;5081818;28;20054;-50
2022/09/21 09:18:32;;;;;;;1.80;1.20;;;;;;;26.06;34.31;102215.34;5060108;28;20037;-51
2022/09/21 09:21:09;;;;;;;3.53;1.27;;;;;;;26.03;34.22;102215.31;5083102;28;20024;-51
2022/09/21 09:23:45;;;;;;;7.15;1.70;;;;;;;26.03;34.25;102217.03;5061891;28;20067;-51
2022/09/21 09:26:23;;;;;;;3.97;1.65;;;;;;;26.16;33.61;102213.88;5077179;28;20025;-51
2022/09/21 09:28:58;;;;;;;5.97;1.50;;;;;;;26.12;33.73;102212.03;5058405;28;20044;-52
2022/09/21 09:31:35;;;;;;;5.55;1.30;;;;;;;26.05;33.95;102210.97;5061757;28;20025;-51
2022/09/21 09:34:13;;;;;;;4.20;1.50;;;;;;;26.06;34.03;102211.84;5064106;28;20388;-50
2022/09/21 09:36:54;;;;;;;2.72;1.17;;;;;;;26.03;34.13;102212.66;5067876;28;20078;-51
2022/09/21 09:39:22;;;;;;;3.47;1.63;;;;;;;26.00;34.22;102203.81;5064169;28;20048;-51
2022/09/21 09:42:00;;;;;;;4.18;1.45;;;;;;;26.03;34.17;102201.25;5043040;28;20029;-51
2022/09/21 09:44:33;;;;;;;5.28;1.20;;;;;;;26.02;34.46;102207.34;5063164;28;20384;-51
2022/09/21 09:47:20;;;;;;;5.45;1.40;;;;;;;25.89;34.33;102179.91;5060803;28;20507;-55
2022/09/21 09:49:58;;;;;;;2.90;1.55;;;;;;;26.02;34.34;102207.34;5061546;28;20424;-52
2022/09/21 09:52:26;;;;;;;2.58;1.48;;;;;;;26.05;33.95;102210.06;5059795;28;20058;-49
2022/09/21 09:54:55;;;;;;;1.45;1.05;;;;;;;26.03;34.10;102206.50;5046048;28;20535;-50
2022/09/21 09:57:33;;;;;;;3.30;1.27;;;;;;;26.11;34.19;102204.06;5059356;28;20040;-54
2022/09/21 10:00:07;;;;;;;6.50;1.20;;;;;;;26.12;34.08;102203.25;5071950;28;20023;-51
2022/09/21 10:02:47;;;;;;;4.00;1.25;;;;;;;26.11;34.12;102210.25;5072965;28;20086;-51
2022/09/21 10:05:37;;;;;;;4.18;1.08;;;;;;;26.16;33.63;102200.72;5059777;28;20541;-56
2022/09/21 10:08:05;;;;;;;3.08;1.45;;;;;;;26.21;33.67;102199.09;5061476;28;20052;-51
2022/09/21 10:10:35;;;;;;;3.03;1.20;;;;;;;26.14;33.72;102207.72;5048687;28;20078;-50
2022/09/21 10:13:06;;;;;;;4.13;1.08;;;;;;;26.16;33.38;102211.22;5062882;28;20074;-49
2022/09/21 10:15:33;;;;;;;4.07;1.17;;;;;;;26.11;33.43;102202.38;5063300;28;20027;-49
2022/09/21 10:18:21;;;;;;;5.45;1.40;;;;;;;26.09;33.23;102201.41;5060454;28;20083;-52
2022/09/21 10:21:02;;;;;;;1.77;1.20;;;;;;;26.02;33.13;102199.47;5060175;28;20082;-48
2022/09/21 10:23:31;;;;;;;2.03;0.95;;;;;;;26.07;33.62;102197.84;5065741;28;20032;-51
2022/09/21 10:26:02;;;;;;;3.03;1.25;;;;;;;26.17;33.25;102201.63;5060396;28;20029;-51
2022/09/21 10:28:31;;;;;;;4.03;1.20;;;;;;;26.15;33.52;102209.44;5046980;28;20035;-48
2022/09/21 10:31:16;;;;;;;2.63;1.33;;;;;;;26.18;33.53;102201.63;5102752;28;20429;-48
2022/09/21 10:33:49;;;;;;;5.80;1.52;;;;;;;26.12;32.74;102208.50;5098949;28;20032;-47
2022/09/21 10:36:36;;;;;;;3.53;1.23;;;;;;;26.16;33.46;102207.72;5100732;28;20509;-50
2022/09/21 10:39:25;;;;;;;7.07;1.55;;;;;;;26.16;32.63;102205.97;5096360;28;20028;-47
2022/09/21 10:41:58;;;;;;;4.32;1.92;;;;;;;26.15;32.93;102209.44;5092006;28;20059;-48
2022/09/21 10:44:46;;;;;;;4.72;1.40;;;;;;;26.28;32.99;102215.03;5102161;28;20111;-52
2022/09/21 10:47:14;;;;;;;3.97;1.42;;;;;;;26.33;32.67;102202.84;5098237;28;20081;-48
2022/09/21 10:49:49;;;;;;;2.40;0.77;;;;;;;26.28;32.63;102201.88;5100369;28;20020;-47
2022/09/21 10:52:18;;;;;;;2.42;1.25;;;;;;;26.24;32.91;102201.78;5100126;28;20024;-47
2022/09/21 10:54:51;;;;;;;2.92;1.00;;;;;;;26.22;32.66;102208.75;5100379;28;20035;-47
2022/09/21 10:57:20;;;;;;;7.63;1.30;;;;;;;26.21;32.90;102206.97;5086032;28;20020;-50
2022/09/21 10:59:49;;;;;;;2.45;1.10;;;;;;;26.13;32.37;102192.78;5086301;28;20020;-47
2022/09/21 11:02:37;;;;;;;3.47;0.90;;;;;;;26.15;33.08;102203.31;5104100;28;20031;-48
2022/09/21 11:05:15;;;;;;;3.38;1.20;;;;;;;26.16;32.42;102200.72;5104022;28;20028;-48
2022/09/21 11:08:02;;;;;;;4.30;1.27;;;;;;;26.21;32.57;102201.72;5077589;28;20078;-52
2022/09/21 11:10:51;;;;;;;3.55;1.08;;;;;;;26.26;32.57;102190.41;5099861;28;20103;-53
2022/09/21 11:13:39;;;;;;;4.28;1.50;;;;;;;26.12;32.34;102162.06;5063563;28;20058;-47
2022/09/21 11:16:36;;;;;;;6.18;1.60;;;;;;;26.16;32.71;102187.56;5100771;28;20028;-54
2022/09/21 11:19:23;;;;;;;2.92;1.00;;;;;;;26.24;32.89;102178.13;5071322;28;20032;-50
2022/09/21 11:22:08;;;;;;;2.30;1.20;;;;;;;26.33;32.32;102177.44;5097100;28;20397;-52
2022/09/21 11:24:45;;;;;;;2.33;0.73;;;;;;;26.34;32.53;102168.69;5085287;28;20028;-51
2022/09/21 11:27:37;;;;;;;3.33;1.35;;;;;;;26.29;32.50;102158.94;5100521;28;20040;-47
2022/09/21 11:30:08;;;;;;;3.58;1.20;;;;;;;26.34;32.51;102163.44;5100473;28;20127;-49
2022/09/21 11:33:01;;;;;;;2.63;1.23;;;;;;;26.28;33.03;102162.41;5101730;28;20078;-48
2022/09/21 11:35:55;;;;;;;2.67;0.98;;;;;;;26.26;33.45;102169.38;5080852;28;20118;-49
2022/09/21 11:38:48;;;;;;;3.05;1.27;;;;;;;26.36;32.90;102169.63;5095512;28;20035;-50
2022/09/21 11:41:52;;;;;;;5.60;1.42;;;;;;;26.33;33.36;102169.56;5088822;28;20039;-49
2022/09/21 11:44:47;;;;;;;1.92;0.95;;;;;;;26.25;33.43;102163.22;5094257;28;20479;-50
2022/09/21 11:47:27;;;;;;;3.85;1.30;;;;;;;26.29;33.45;102167.69;5075595;28;20055;-49
2022/09/21 11:50:22;;;;;;;1.55;0.77;;;;;;;26.23;33.13;102139.53;5086089;28;20434;-52
2022/09/21 11:53:10;;;;;;;3.78;1.23;;;;;;;26.33;33.33;102156.41;5098475;28;20482;-50
2022/09/21 11:55:49;;;;;;;3.17;1.10;;;;;;;26.37;32.29;102152.97;5092914;28;20165;-48
2022/09/21 11:58:42;;;;;;;3.80;1.42;;;;;;;26.38;32.30;102157.41;5096037;28;20376;-51